createdAt,value
2023-08-09T00:02:28.162Z,68.88
2023-08-09T00:05:14.813Z,68.97
2023-08-09T00:08:02.164Z,69.05
2023-08-09T00:10:49.128Z,69.16
2023-08-09T00:13:36.457Z,69.27
2023-08-09T00:16:23.205Z,69.16
2023-08-09T00:19:10.827Z,69.31
2023-08-09T00:21:57.787Z,69.49
2023-08-09T00:24:45.343Z,69.18
2023-08-09T00:27:32.655Z,68.91
2023-08-09T00:30:19.581Z,68.75
2023-08-09T00:33:06.373Z,68.47
2023-08-09T00:35:53.606Z,68.12
2023-08-09T00:38:40.281Z,68.10
2023-08-09T00:41:27.570Z,67.75
2023-08-09T00:44:14.816Z,67.68
2023-08-09T00:47:02.024Z,68.13
2023-08-09T00:49:49.431Z,68.46
2023-08-09T00:52:37.626Z,68.67
2023-08-09T00:55:24.693Z,69.11
2023-08-09T00:58:11.276Z,68.98
2023-08-09T01:00:58.514Z,68.88
2023-08-09T01:03:45.475Z,68.63
2023-08-09T01:06:53.185Z,68.39
2023-08-09T01:10:00.332Z,68.51
2023-08-09T01:12:54.079Z,68.80
2023-08-09T01:15:43.411Z,69.02
2023-08-09T01:18:31.859Z,68.77
2023-08-09T01:21:21.009Z,68.87
2023-08-09T01:24:09.407Z,68.89
2023-08-09T01:26:56.968Z,68.82
2023-08-09T01:29:44.477Z,68.85
2023-08-09T01:32:32.446Z,69.18
2023-08-09T01:35:19.563Z,69.05
2023-08-09T01:38:18.247Z,69.07
2023-08-09T01:41:07.656Z,69.42
2023-08-09T01:43:56.877Z,69.33
2023-08-09T01:46:45.698Z,69.39
2023-08-09T01:49:33.113Z,69.44
2023-08-09T01:52:19.930Z,69.17
2023-08-09T01:55:07.070Z,69.07
2023-08-09T01:57:57.199Z,69.12
2023-08-09T02:00:44.746Z,69.26
2023-08-09T02:03:31.899Z,69.75
2023-08-09T02:06:18.575Z,69.53
2023-08-09T02:09:08.076Z,69.44
2023-08-09T02:11:54.810Z,69.48
2023-08-09T02:14:41.698Z,69.58
2023-08-09T02:17:28.778Z,69.34
2023-08-09T02:20:18.353Z,69.44
2023-08-09T02:23:06.459Z,69.40
2023-08-09T02:25:54.438Z,69.24
2023-08-09T02:28:41.292Z,69.08
2023-08-09T02:31:29.154Z,69.43
2023-08-09T02:34:15.986Z,69.37
2023-08-09T02:37:03.871Z,69.44
2023-08-09T02:39:51.278Z,69.86
2023-08-09T02:42:38.851Z,69.85
2023-08-09T02:45:25.672Z,69.73
2023-08-09T02:48:13.211Z,69.75
2023-08-09T02:51:00.649Z,69.77
2023-08-09T02:54:05.162Z,69.70
2023-08-09T02:56:52.209Z,69.64
2023-08-09T02:59:38.911Z,69.50
2023-08-09T03:02:26.610Z,69.46
2023-08-09T03:05:14.779Z,69.64
2023-08-09T03:08:03.443Z,69.78
2023-08-09T03:10:50.427Z,69.69
2023-08-09T03:13:37.549Z,69.75
2023-08-09T03:16:25.121Z,69.79
2023-08-09T03:19:12.756Z,69.85
2023-08-09T03:22:00.300Z,70.21
2023-08-09T03:24:47.230Z,70.10
2023-08-09T03:27:34.476Z,70.03
2023-08-09T03:30:22.543Z,70.07
2023-08-09T03:33:10.035Z,70.32
2023-08-09T03:35:57.848Z,70.39
2023-08-09T03:38:45.117Z,70.30
2023-08-09T03:41:31.938Z,70.07
2023-08-09T03:44:18.926Z,69.68
2023-08-09T03:47:06.089Z,69.42
2023-08-09T03:49:53.041Z,69.66
2023-08-09T03:52:39.872Z,69.60
2023-08-09T03:55:27.213Z,69.58
2023-08-09T03:58:14.180Z,69.49
2023-08-09T04:01:01.002Z,69.48
2023-08-09T04:03:48.554Z,69.32
2023-08-09T04:06:35.693Z,69.31
2023-08-09T04:09:22.642Z,69.43
2023-08-09T04:12:09.688Z,69.39
2023-08-09T04:14:56.458Z,69.33
2023-08-09T04:17:43.665Z,69.40
2023-08-09T04:20:32.848Z,69.26
2023-08-09T04:23:19.798Z,69.29
2023-08-09T04:26:06.924Z,69.09
2023-08-09T04:28:53.936Z,68.64
2023-08-09T04:31:41.042Z,68.58
2023-08-09T04:34:28.263Z,68.54
2023-08-09T04:37:16.726Z,68.29
2023-08-09T04:40:03.832Z,68.01
2023-08-09T04:42:51.226Z,67.86
2023-08-09T04:45:37.966Z,67.64
2023-08-09T04:48:24.950Z,67.53
2023-08-09T04:51:12.023Z,66.97
2023-08-09T04:53:59.597Z,66.47
2023-08-09T04:56:56.994Z,66.09
2023-08-09T04:59:44.269Z,65.74
2023-08-09T05:02:37.170Z,65.17
2023-08-09T05:05:24.697Z,65.18
2023-08-09T05:08:11.741Z,65.10
2023-08-09T05:10:58.976Z,64.98
2023-08-09T05:13:46.707Z,64.88
2023-08-09T05:16:33.727Z,64.76
2023-08-09T05:19:21.395Z,64.38
2023-08-09T05:22:08.894Z,63.52
2023-08-09T05:24:58.911Z,62.66
2023-08-09T05:28:02.818Z,61.44
2023-08-09T05:30:50.017Z,59.90
2023-08-09T05:33:36.908Z,58.97
2023-08-09T05:36:24.583Z,58.30
2023-08-09T05:39:11.260Z,57.59
2023-08-09T05:41:57.839Z,56.29
2023-08-09T05:44:44.808Z,55.91
2023-08-09T05:47:32.642Z,54.89
2023-08-09T05:50:20.431Z,54.97
2023-08-09T05:53:11.078Z,54.24
2023-08-09T05:55:59.319Z,53.75
2023-08-09T05:58:46.555Z,53.42
2023-08-09T06:01:35.046Z,53.20
2023-08-09T06:07:50.618Z,51.59
2023-08-09T06:14:07.297Z,51.40
2023-08-09T06:16:54.671Z,51.62
2023-08-09T06:19:42.260Z,51.09
2023-08-09T06:22:30.071Z,51.30
2023-08-09T06:25:22.850Z,50.29
2023-08-09T06:28:10.209Z,50.16
2023-08-09T06:30:58.292Z,50.21
2023-08-09T06:33:48.569Z,50.61
2023-08-09T06:36:36.183Z,49.96
2023-08-09T06:39:25.551Z,49.18
2023-08-09T06:42:15.488Z,48.94
2023-08-09T06:45:05.257Z,49.00
2023-08-09T06:47:52.467Z,48.66
2023-08-09T06:50:39.734Z,48.27
2023-08-09T06:53:29.505Z,48.44
2023-08-09T06:56:17.033Z,47.64
2023-08-09T06:59:04.487Z,46.54
2023-08-09T07:01:51.766Z,46.23
2023-08-09T07:04:54.380Z,45.88
2023-08-09T07:07:45.276Z,45.54
2023-08-09T07:14:46.799Z,44.81
2023-08-09T07:17:38.773Z,44.53
2023-08-09T07:20:26.958Z,44.08
2023-08-09T07:23:29.626Z,43.28
2023-08-09T07:26:30.678Z,42.07
2023-08-09T07:29:17.951Z,41.78
2023-08-09T07:32:11.524Z,41.53
2023-08-09T07:34:58.760Z,41.80
2023-08-09T07:38:08.212Z,41.73
2023-08-09T07:40:55.699Z,41.93
2023-08-09T07:43:43.122Z,41.83
2023-08-09T07:46:32.384Z,41.20
2023-08-09T07:49:21.199Z,40.73
2023-08-09T07:52:11.120Z,40.22
2023-08-09T07:55:42.486Z,39.88
2023-08-09T08:03:30.947Z,39.11
2023-08-09T08:06:19.144Z,38.84
2023-08-09T08:09:06.209Z,38.93
2023-08-09T08:12:13.517Z,38.35
2023-08-09T08:15:10.132Z,37.41
2023-08-09T08:18:35.636Z,36.81
2023-08-09T08:21:34.619Z,36.85
2023-08-09T08:24:25.467Z,36.90
2023-08-09T08:27:14.378Z,37.09
2023-08-09T08:30:09.581Z,36.79
2023-08-09T08:32:56.765Z,36.65
2023-08-09T08:35:55.585Z,36.21
2023-08-09T08:39:25.897Z,36.01
2023-08-09T08:42:50.519Z,36.13
2023-08-09T08:50:32.947Z,36.02
2023-08-09T08:53:20.754Z,35.16
2023-08-09T08:56:12.375Z,34.76
2023-08-09T08:59:00.517Z,34.28
2023-08-09T09:01:49.265Z,34.04
2023-08-09T09:04:37.910Z,33.98
2023-08-09T09:07:25.109Z,33.49
2023-08-09T09:10:13.644Z,33.26
2023-08-09T09:13:03.994Z,34.05
2023-08-09T09:15:51.262Z,35.77
2023-08-09T09:18:44.545Z,36.65
2023-08-09T09:21:36.536Z,37.19
2023-08-09T09:24:24.072Z,37.52
2023-08-09T09:27:12.523Z,37.34
2023-08-09T09:30:13.290Z,37.23
2023-08-09T09:33:07.118Z,36.99
2023-08-09T09:35:54.726Z,36.42
2023-08-09T09:38:44.724Z,36.45
2023-08-09T09:41:31.829Z,36.71
2023-08-09T09:44:21.661Z,36.33
2023-08-09T09:47:09.380Z,35.72
2023-08-09T09:49:56.493Z,35.67
2023-08-09T09:52:45.357Z,35.43
2023-08-09T09:55:34.537Z,35.28
2023-08-09T09:58:21.874Z,35.92
2023-08-09T10:01:13.950Z,35.38
2023-08-09T10:04:11.799Z,31.74
2023-08-09T10:06:58.968Z,30.35
2023-08-09T10:09:49.295Z,31.28
2023-08-09T10:12:37.909Z,32.40
2023-08-09T10:15:33.509Z,29.34
2023-08-09T10:18:24.484Z,28.85
2023-08-09T10:21:15.753Z,28.08
2023-08-09T10:24:13.699Z,28.02
2023-08-09T10:27:07.747Z,28.46
2023-08-09T10:29:59.083Z,27.95
2023-08-09T10:32:54.894Z,28.20
2023-08-09T10:35:55.179Z,30.11
2023-08-09T10:38:49.257Z,31.08
2023-08-09T10:41:38.212Z,31.37
2023-08-09T10:44:34.697Z,30.84
2023-08-09T10:47:28.297Z,31.23
2023-08-09T10:50:16.228Z,31.49
2023-08-09T10:53:05.893Z,31.32
2023-08-09T10:55:57.022Z,31.22
2023-08-09T10:58:45.579Z,31.16
2023-08-09T11:01:33.928Z,31.21
2023-08-09T11:04:22.454Z,31.92
2023-08-09T11:07:22.695Z,31.74
2023-08-09T11:10:09.761Z,32.64
2023-08-09T11:12:56.879Z,31.76
2023-08-09T11:15:47.006Z,31.61
2023-08-09T11:18:34.116Z,33.04
2023-08-09T11:21:25.152Z,33.33
2023-08-09T11:24:15.203Z,33.10
2023-08-09T11:27:02.253Z,32.89
2023-08-09T11:29:49.367Z,32.97
2023-08-09T11:32:38.869Z,33.01
2023-08-09T11:35:31.784Z,33.76
2023-08-09T11:38:19.130Z,33.48
2023-08-09T11:41:06.892Z,33.94
2023-08-09T11:43:55.877Z,34.08
2023-08-09T11:46:47.350Z,34.47
2023-08-09T11:49:35.109Z,33.64
2023-08-09T11:52:24.553Z,33.05
2023-08-09T11:55:11.974Z,32.63
2023-08-09T11:58:06.981Z,32.91
2023-08-09T12:00:54.655Z,33.05
2023-08-09T12:03:42.609Z,32.89
2023-08-09T12:06:41.839Z,32.48
2023-08-09T12:09:38.173Z,32.85
2023-08-09T12:12:39.582Z,33.09
2023-08-09T12:15:28.262Z,32.95
2023-08-09T12:18:15.632Z,32.55
2023-08-09T12:21:03.755Z,31.81
2023-08-09T12:23:50.516Z,31.87
2023-08-09T12:26:38.948Z,31.89
2023-08-09T12:29:27.327Z,31.62
2023-08-09T12:32:15.271Z,31.42
2023-08-09T12:35:03.531Z,31.01
2023-08-09T12:37:51.137Z,30.90
2023-08-09T12:40:39.660Z,30.01
2023-08-09T12:43:27.287Z,29.57
2023-08-09T12:46:14.293Z,29.30
2023-08-09T12:49:01.171Z,28.65
2023-08-09T12:51:51.204Z,27.93
2023-08-09T12:54:40.327Z,27.98
2023-08-09T12:57:27.729Z,27.70
2023-08-09T13:00:17.220Z,28.14
2023-08-09T13:03:07.469Z,27.70
2023-08-09T13:06:12.814Z,27.38
2023-08-09T13:09:14.195Z,26.83
2023-08-09T13:12:10.250Z,26.12
2023-08-09T13:14:57.766Z,25.70
2023-08-09T13:17:45.505Z,25.97
2023-08-09T13:20:32.364Z,25.96
2023-08-09T13:26:40.116Z,25.17
2023-08-09T13:29:27.274Z,24.76
2023-08-09T13:32:14.697Z,24.20
2023-08-09T13:35:01.638Z,24.10
2023-08-09T13:37:48.860Z,24.62
2023-08-09T13:40:39.316Z,24.35
2023-08-09T13:43:27.743Z,24.15
2023-08-09T13:46:15.070Z,24.27
2023-08-09T13:49:02.710Z,24.59
2023-08-09T13:51:49.883Z,25.10
2023-08-09T13:54:37.213Z,24.81
2023-08-09T13:57:24.582Z,24.64
2023-08-09T14:00:15.412Z,25.10
2023-08-09T14:03:02.626Z,25.31
2023-08-09T14:05:49.588Z,25.43
2023-08-09T14:08:36.866Z,25.16
2023-08-09T14:11:23.646Z,25.01
2023-08-09T14:14:10.931Z,25.50
2023-08-09T14:16:58.958Z,25.82
2023-08-09T14:19:46.453Z,26.51
2023-08-09T14:22:33.253Z,26.61
2023-08-09T14:25:24.636Z,26.74
2023-08-09T14:28:11.608Z,26.52
2023-08-09T14:30:59.005Z,26.23
2023-08-09T14:33:45.926Z,26.23
2023-08-09T14:36:32.960Z,26.37
2023-08-09T14:39:21.743Z,26.18
2023-08-09T14:42:09.297Z,26.19
2023-08-09T14:44:58.584Z,26.25
2023-08-09T14:47:46.100Z,26.27
2023-08-09T14:50:33.261Z,26.19
2023-08-09T14:53:20.493Z,25.81
2023-08-09T14:56:07.388Z,25.33
2023-08-09T15:02:57.393Z,25.01
2023-08-09T15:09:45.854Z,24.90
2023-08-09T15:15:58.919Z,24.50
2023-08-09T15:19:19.428Z,23.66
2023-08-09T15:31:00.993Z,23.55
2023-08-09T15:36:44.515Z,23.51
2023-08-09T15:39:33.218Z,23.26
2023-08-09T15:42:20.304Z,22.94
2023-08-09T15:45:08.584Z,22.71
2023-08-09T15:47:55.659Z,22.71
2023-08-09T15:50:43.602Z,22.87
2023-08-09T15:53:31.285Z,22.81
2023-08-09T15:56:18.249Z,22.67
2023-08-09T15:59:07.321Z,22.68
2023-08-09T16:01:55.672Z,23.06
2023-08-09T16:04:43.599Z,23.41
2023-08-09T16:21:28.388Z,26.80
2023-08-09T16:24:23.976Z,26.70
2023-08-09T16:31:23.105Z,26.66
2023-08-09T16:38:23.427Z,27.14
2023-08-09T16:41:34.828Z,27.78
2023-08-09T16:45:05.276Z,28.22
2023-08-09T16:48:19.024Z,28.26
2023-08-09T16:54:48.045Z,30.91
2023-08-09T16:57:35.361Z,32.37
2023-08-09T17:00:22.622Z,33.84
2023-08-09T17:07:14.897Z,36.14
2023-08-09T17:10:40.086Z,36.98
2023-08-09T17:25:11.523Z,38.18
2023-08-09T17:28:51.386Z,38.29
2023-08-09T17:35:27.734Z,39.87
2023-08-09T17:38:14.645Z,40.59
2023-08-09T17:41:01.670Z,41.36
2023-08-09T17:43:49.020Z,42.19
2023-08-09T17:46:42.101Z,42.64
2023-08-09T17:50:24.742Z,43.16
2023-08-09T17:53:35.584Z,44.08
2023-08-09T17:57:07.124Z,44.61
2023-08-09T18:00:22.193Z,45.23
2023-08-09T18:07:15.104Z,46.71
2023-08-09T18:10:25.872Z,47.44
2023-08-09T18:13:12.532Z,48.17
2023-08-09T18:15:59.700Z,48.93
2023-08-09T18:18:46.541Z,49.42
2023-08-09T18:21:34.950Z,49.80
2023-08-09T18:24:22.012Z,50.17
2023-08-09T18:27:09.919Z,50.58
2023-08-09T18:29:56.755Z,51.07
2023-08-09T18:32:54.961Z,51.52
2023-08-09T18:43:19.052Z,52.95
2023-08-09T18:46:25.164Z,53.08
2023-08-09T18:56:24.434Z,54.12
2023-08-09T18:59:11.607Z,54.30
2023-08-09T19:01:58.279Z,54.10
2023-08-09T19:04:45.175Z,54.22
2023-08-09T19:07:34.382Z,54.40
2023-08-09T19:10:21.243Z,54.35
2023-08-09T19:13:08.581Z,54.62
2023-08-09T19:15:55.849Z,54.69
2023-08-09T19:18:43.213Z,54.94
2023-08-09T19:21:29.999Z,54.97
2023-08-09T19:24:17.152Z,54.90
2023-08-09T19:27:04.598Z,55.18
2023-08-09T19:29:51.890Z,55.32
2023-08-09T19:32:39.621Z,55.59
2023-08-09T19:35:26.805Z,55.70
2023-08-09T19:38:13.846Z,56.16
2023-08-09T19:41:01.227Z,56.46
2023-08-09T19:43:48.382Z,56.66
2023-08-09T19:46:35.503Z,56.80
2023-08-09T19:49:35.398Z,56.80
2023-08-09T19:52:22.294Z,56.74
2023-08-09T19:55:09.971Z,56.57
2023-08-09T19:57:57.651Z,56.55
2023-08-09T20:00:44.994Z,56.81
2023-08-09T20:03:32.872Z,57.11
2023-08-09T20:06:21.344Z,57.32
2023-08-09T20:09:08.438Z,57.81
2023-08-09T20:11:55.376Z,57.83
2023-08-09T20:14:42.676Z,57.99
2023-08-09T20:17:29.874Z,57.98
2023-08-09T20:20:17.139Z,58.10
2023-08-09T20:23:04.585Z,58.43
2023-08-09T20:25:52.538Z,58.56
2023-08-09T20:28:39.669Z,58.57
2023-08-09T20:31:26.692Z,58.69
2023-08-09T20:34:13.278Z,59.09
2023-08-09T20:37:00.591Z,59.08
2023-08-09T20:39:47.601Z,59.29
2023-08-09T20:42:34.551Z,59.54
2023-08-09T20:45:22.182Z,59.05
2023-08-09T20:48:09.232Z,59.11
2023-08-09T20:51:00.658Z,59.11
2023-08-09T20:53:48.042Z,59.06
2023-08-09T20:56:34.923Z,59.16
2023-08-09T20:59:22.055Z,59.15
2023-08-09T21:02:10.077Z,59.16
2023-08-09T21:04:56.927Z,58.64
2023-08-09T21:07:44.006Z,58.67
2023-08-09T21:10:31.162Z,58.64
2023-08-09T21:13:18.178Z,58.53
2023-08-09T21:16:05.701Z,58.55
2023-08-09T21:18:52.676Z,58.72
2023-08-09T21:21:39.798Z,58.75
2023-08-09T21:24:30.035Z,58.59
2023-08-09T21:27:17.458Z,58.59
2023-08-09T21:30:05.576Z,58.60
2023-08-09T21:32:52.495Z,58.61
2023-08-09T21:35:42.987Z,58.55
2023-08-09T21:38:30.411Z,58.64
2023-08-09T21:41:18.073Z,59.02
2023-08-09T21:44:05.447Z,59.12
2023-08-09T21:46:52.677Z,59.17
2023-08-09T21:49:40.283Z,59.08
2023-08-09T21:52:28.180Z,59.02
2023-08-09T21:55:15.771Z,59.13
2023-08-09T21:58:02.530Z,59.40
2023-08-09T22:00:49.499Z,59.43
2023-08-09T22:03:36.477Z,59.43
2023-08-09T22:06:23.778Z,59.53
2023-08-09T22:09:12.123Z,59.74
2023-08-09T22:11:59.471Z,59.76
2023-08-09T22:14:46.554Z,59.39
2023-08-09T22:17:33.452Z,59.33
2023-08-09T22:20:21.323Z,59.34
2023-08-09T22:23:08.542Z,59.40
2023-08-09T22:25:55.498Z,59.38
2023-08-09T22:28:43.181Z,59.42
2023-08-09T22:31:33.589Z,59.47
2023-08-09T22:34:21.500Z,59.34
2023-08-09T22:37:08.249Z,59.29
2023-08-09T22:39:55.192Z,59.19
2023-08-09T22:42:42.308Z,59.12
2023-08-09T22:45:31.801Z,59.09
2023-08-09T22:48:18.456Z,59.17
2023-08-09T22:51:06.186Z,59.30
2023-08-09T22:53:53.530Z,59.30
2023-08-09T22:56:40.599Z,59.37
2023-08-09T22:59:27.248Z,59.35
2023-08-09T23:02:14.719Z,59.26
2023-08-09T23:05:01.613Z,59.25
2023-08-09T23:07:48.886Z,59.52
2023-08-09T23:10:36.968Z,59.63
2023-08-09T23:13:27.285Z,59.56
2023-08-09T23:16:15.267Z,59.40
2023-08-09T23:19:03.310Z,59.23
2023-08-09T23:21:50.964Z,59.28
2023-08-09T23:24:38.390Z,59.35
2023-08-09T23:27:25.680Z,59.37
2023-08-09T23:30:13.504Z,59.23
2023-08-09T23:33:04.170Z,59.38
2023-08-09T23:35:51.672Z,59.40
2023-08-09T23:38:38.685Z,59.44
2023-08-09T23:41:25.457Z,59.50
2023-08-09T23:44:12.859Z,59.54
2023-08-09T23:46:59.775Z,59.74
2023-08-09T23:49:47.617Z,59.99
2023-08-09T23:52:34.728Z,60.27
2023-08-09T23:55:21.875Z,60.51
2023-08-09T23:58:09.656Z,60.90
